sensor_id;sensor_type;location;lat;lon;timestamp;temperature;humidity
59282;DHT22;45054;52.062;10.010;2023-11-19T00:01:31;5.90;99.90
59282;DHT22;45054;52.062;10.010;2023-11-19T00:03:58;5.90;99.90
59282;DHT22;45054;52.062;10.010;2023-11-19T00:06:23;5.90;99.90
59282;DHT22;45054;52.062;10.010;2023-11-19T00:08:49;5.90;99.90
59282;DHT22;45054;52.062;10.010;2023-11-19T00:11:14;5.90;99.90
59282;DHT22;45054;52.062;10.010;2023-11-19T00:13:40;5.90;99.90
59282;DHT22;45054;52.062;10.010;2023-11-19T00:16:06;5.90;99.90
59282;DHT22;45054;52.062;10.010;2023-11-19T00:18:31;5.90;99.90
59282;DHT22;45054;52.062;10.010;2023-11-19T00:20:58;5.90;99.90
59282;DHT22;45054;52.062;10.010;2023-11-19T00:23:24;6.00;99.90
59282;DHT22;45054;52.062;10.010;2023-11-19T00:25:49;5.90;99.90
59282;DHT22;45054;52.062;10.010;2023-11-19T00:28:14;5.90;99.90
59282;DHT22;45054;52.062;10.010;2023-11-19T00:30:40;6.00;99.90
59282;DHT22;45054;52.062;10.010;2023-11-19T00:33:05;5.90;99.90
59282;DHT22;45054;52.062;10.010;2023-11-19T00:35:31;6.00;99.90
59282;DHT22;45054;52.062;10.010;2023-11-19T00:37:58;6.00;99.90
59282;DHT22;45054;52.062;10.010;2023-11-19T00:40:23;6.00;99.90
59282;DHT22;45054;52.062;10.010;2023-11-19T00:42:49;6.00;99.90
59282;DHT22;45054;52.062;10.010;2023-11-19T00:45:14;6.00;99.90
59282;DHT22;45054;52.062;10.010;2023-11-19T00:47:40;6.00;99.90
59282;DHT22;45054;52.062;10.010;2023-11-19T00:50:06;6.10;99.90
59282;DHT22;45054;52.062;10.010;2023-11-19T00:52:31;6.10;99.90
59282;DHT22;45054;52.062;10.010;2023-11-19T00:54:58;6.00;99.90
59282;DHT22;45054;52.062;10.010;2023-11-19T00:57:24;6.10;99.90
59282;DHT22;45054;52.062;10.010;2023-11-19T00:59:49;6.10;99.90
59282;DHT22;45054;52.062;10.010;2023-11-19T01:02:14;6.10;99.90
59282;DHT22;45054;52.062;10.010;2023-11-19T01:04:40;6.10;99.90
59282;DHT22;45054;52.062;10.010;2023-11-19T01:07:05;6.20;99.90
59282;DHT22;45054;52.062;10.010;2023-11-19T01:09:31;6.10;99.90
59282;DHT22;45054;52.062;10.010;2023-11-19T01:11:58;6.20;99.90
59282;DHT22;45054;52.062;10.010;2023-11-19T01:14:23;6.20;99.90
59282;DHT22;45054;52.062;10.010;2023-11-19T01:16:49;6.20;99.90
59282;DHT22;45054;52.062;10.010;2023-11-19T01:19:14;6.20;99.90
59282;DHT22;45054;52.062;10.010;2023-11-19T01:21:39;6.30;99.90
59282;DHT22;45054;52.062;10.010;2023-11-19T01:24:05;6.30;99.90
59282;DHT22;45054;52.062;10.010;2023-11-19T01:26:31;6.40;99.90
59282;DHT22;45054;52.062;10.010;2023-11-19T01:28:58;6.40;99.90
59282;DHT22;45054;52.062;10.010;2023-11-19T01:31:23;6.40;99.90
59282;DHT22;45054;52.062;10.010;2023-11-19T01:33:49;6.40;99.90
59282;DHT22;45054;52.062;10.010;2023-11-19T01:36:14;6.40;99.90
59282;DHT22;45054;52.062;10.010;2023-11-19T01:38:40;6.40;99.90
59282;DHT22;45054;52.062;10.010;2023-11-19T01:41:05;6.40;99.90
59282;DHT22;45054;52.062;10.010;2023-11-19T01:43:31;6.50;99.90
59282;DHT22;45054;52.062;10.010;2023-11-19T01:45:58;6.50;99.90
59282;DHT22;45054;52.062;10.010;2023-11-19T01:48:23;6.50;99.90
59282;DHT22;45054;52.062;10.010;2023-11-19T01:50:49;6.60;99.90
59282;DHT22;45054;52.062;10.010;2023-11-19T01:53:15;6.60;99.90
59282;DHT22;45054;52.062;10.010;2023-11-19T01:55:40;6.50;99.90
59282;DHT22;45054;52.062;10.010;2023-11-19T01:58:05;6.60;99.90
59282;DHT22;45054;52.062;10.010;2023-11-19T02:00:32;6.60;99.90
59282;DHT22;45054;52.062;10.010;2023-11-19T02:02:59;6.70;99.90
59282;DHT22;45054;52.062;10.010;2023-11-19T02:05:25;6.70;99.90
59282;DHT22;45054;52.062;10.010;2023-11-19T02:07:50;6.70;99.90
59282;DHT22;45054;52.062;10.010;2023-11-19T02:10:16;6.70;99.90
59282;DHT22;45054;52.062;10.010;2023-11-19T02:12:41;6.70;99.90
59282;DHT22;45054;52.062;10.010;2023-11-19T02:15:07;6.70;99.90
59282;DHT22;45054;52.062;10.010;2023-11-19T02:17:33;6.80;99.90
59282;DHT22;45054;52.062;10.010;2023-11-19T02:19:59;6.80;99.90
59282;DHT22;45054;52.062;10.010;2023-11-19T02:22:25;6.80;99.90
59282;DHT22;45054;52.062;10.010;2023-11-19T02:24:51;6.80;99.90
59282;DHT22;45054;52.062;10.010;2023-11-19T02:27:18;6.80;99.90
59282;DHT22;45054;52.062;10.010;2023-11-19T02:29:47;6.80;99.90
59282;DHT22;45054;52.062;10.010;2023-11-19T02:32:13;6.90;99.90
59282;DHT22;45054;52.062;10.010;2023-11-19T02:34:39;6.90;99.90
59282;DHT22;45054;52.062;10.010;2023-11-19T02:37:04;6.90;99.90
59282;DHT22;45054;52.062;10.010;2023-11-19T02:39:30;7.00;99.90
59282;DHT22;45054;52.062;10.010;2023-11-19T02:41:55;7.00;99.90
59282;DHT22;45054;52.062;10.010;2023-11-19T02:44:21;6.90;99.90
59282;DHT22;45054;52.062;10.010;2023-11-19T02:46:48;7.00;99.90
59282;DHT22;45054;52.062;10.010;2023-11-19T02:49:13;7.00;99.90
59282;DHT22;45054;52.062;10.010;2023-11-19T02:51:39;7.10;99.90
59282;DHT22;45054;52.062;10.010;2023-11-19T02:54:04;7.10;99.90
59282;DHT22;45054;52.062;10.010;2023-11-19T02:56:30;7.10;99.90
59282;DHT22;45054;52.062;10.010;2023-11-19T02:58:55;7.10;99.90
59282;DHT22;45054;52.062;10.010;2023-11-19T03:01:24;7.10;99.90
59282;DHT22;45054;52.062;10.010;2023-11-19T03:03:50;7.20;99.90
59282;DHT22;45054;52.062;10.010;2023-11-19T03:06:16;7.20;99.90
59282;DHT22;45054;52.062;10.010;2023-11-19T03:08:41;7.20;99.90
59282;DHT22;45054;52.062;10.010;2023-11-19T03:11:07;7.30;99.90
59282;DHT22;45054;52.062;10.010;2023-11-19T03:13:33;7.30;99.90
59282;DHT22;45054;52.062;10.010;2023-11-19T03:15:58;7.30;99.90
59282;DHT22;45054;52.062;10.010;2023-11-19T03:18:24;7.30;99.90
59282;DHT22;45054;52.062;10.010;2023-11-19T03:20:51;7.30;99.90
59282;DHT22;45054;52.062;10.010;2023-11-19T03:23:16;7.30;99.90
59282;DHT22;45054;52.062;10.010;2023-11-19T03:25:41;7.40;99.90
59282;DHT22;45054;52.062;10.010;2023-11-19T03:28:07;7.40;99.90
59282;DHT22;45054;52.062;10.010;2023-11-19T03:30:32;7.40;99.90
59282;DHT22;45054;52.062;10.010;2023-11-19T03:32:58;7.40;99.90
59282;DHT22;45054;52.062;10.010;2023-11-19T03:35:23;7.50;99.90
59282;DHT22;45054;52.062;10.010;2023-11-19T03:37:50;7.50;99.90
59282;DHT22;45054;52.062;10.010;2023-11-19T03:40:16;7.50;99.90
59282;DHT22;45054;52.062;10.010;2023-11-19T03:42:41;7.50;99.90
59282;DHT22;45054;52.062;10.010;2023-11-19T03:45:07;7.50;99.90
59282;DHT22;45054;52.062;10.010;2023-11-19T03:47:33;7.50;99.90
59282;DHT22;45054;52.062;10.010;2023-11-19T03:49:58;7.60;99.90
59282;DHT22;45054;52.062;10.010;2023-11-19T03:52:24;7.60;99.90
59282;DHT22;45054;52.062;10.010;2023-11-19T03:54:50;7.60;99.90
59282;DHT22;45054;52.062;10.010;2023-11-19T03:57:16;7.60;99.90
59282;DHT22;45054;52.062;10.010;2023-11-19T03:59:41;7.70;99.90
59282;DHT22;45054;52.062;10.010;2023-11-19T04:02:07;7.70;99.90
59282;DHT22;45054;52.062;10.010;2023-11-19T04:04:32;7.70;99.90
59282;DHT22;45054;52.062;10.010;2023-11-19T04:06:58;7.70;99.90
59282;DHT22;45054;52.062;10.010;2023-11-19T04:09:24;7.80;99.90
59282;DHT22;45054;52.062;10.010;2023-11-19T04:11:50;7.80;99.90
59282;DHT22;45054;52.062;10.010;2023-11-19T04:14:16;7.80;99.90
59282;DHT22;45054;52.062;10.010;2023-11-19T04:16:41;7.90;99.90
59282;DHT22;45054;52.062;10.010;2023-11-19T04:19:07;7.90;99.90
59282;DHT22;45054;52.062;10.010;2023-11-19T04:21:32;7.90;99.90
59282;DHT22;45054;52.062;10.010;2023-11-19T04:23:58;8.00;99.90
59282;DHT22;45054;52.062;10.010;2023-11-19T04:26:23;8.00;99.90
59282;DHT22;45054;52.062;10.010;2023-11-19T04:28:50;8.10;99.90
59282;DHT22;45054;52.062;10.010;2023-11-19T04:31:15;8.10;99.90
59282;DHT22;45054;52.062;10.010;2023-11-19T04:33:41;8.10;99.90
59282;DHT22;45054;52.062;10.010;2023-11-19T04:36:07;8.10;99.90
59282;DHT22;45054;52.062;10.010;2023-11-19T04:38:32;8.10;99.90
59282;DHT22;45054;52.062;10.010;2023-11-19T04:40:58;8.10;99.90
59282;DHT22;45054;52.062;10.010;2023-11-19T04:43:23;8.20;99.90
59282;DHT22;45054;52.062;10.010;2023-11-19T04:45:50;8.20;99.90
59282;DHT22;45054;52.062;10.010;2023-11-19T04:48:15;8.30;99.90
59282;DHT22;45054;52.062;10.010;2023-11-19T04:50:41;8.30;99.90
59282;DHT22;45054;52.062;10.010;2023-11-19T04:53:06;8.30;99.90
59282;DHT22;45054;52.062;10.010;2023-11-19T04:55:32;8.30;99.90
59282;DHT22;45054;52.062;10.010;2023-11-19T04:57:57;8.40;99.90
59282;DHT22;45054;52.062;10.010;2023-11-19T05:00:23;8.40;99.90
59282;DHT22;45054;52.062;10.010;2023-11-19T05:02:49;8.40;99.90
59282;DHT22;45054;52.062;10.010;2023-11-19T05:05:15;8.50;99.90
59282;DHT22;45054;52.062;10.010;2023-11-19T05:07:40;8.50;99.90
59282;DHT22;45054;52.062;10.010;2023-11-19T05:10:06;8.50;99.90
59282;DHT22;45054;52.062;10.010;2023-11-19T05:12:32;8.50;99.90
59282;DHT22;45054;52.062;10.010;2023-11-19T05:14:57;8.60;99.90
59282;DHT22;45054;52.062;10.010;2023-11-19T05:17:23;8.60;99.90
59282;DHT22;45054;52.062;10.010;2023-11-19T05:19:50;8.60;99.90
59282;DHT22;45054;52.062;10.010;2023-11-19T05:22:15;8.60;99.90
59282;DHT22;45054;52.062;10.010;2023-11-19T05:24:41;8.70;99.90
59282;DHT22;45054;52.062;10.010;2023-11-19T05:27:06;8.80;99.90
59282;DHT22;45054;52.062;10.010;2023-11-19T05:29:34;8.80;99.90
59282;DHT22;45054;52.062;10.010;2023-11-19T05:32:00;8.80;99.90
59282;DHT22;45054;52.062;10.010;2023-11-19T05:34:27;8.90;99.90
59282;DHT22;45054;52.062;10.010;2023-11-19T05:36:53;8.90;99.90
59282;DHT22;45054;52.062;10.010;2023-11-19T05:39:19;8.90;99.90
59282;DHT22;45054;52.062;10.010;2023-11-19T05:41:44;8.90;99.90
59282;DHT22;45054;52.062;10.010;2023-11-19T05:44:10;9.00;99.90
59282;DHT22;45054;52.062;10.010;2023-11-19T05:46:35;9.00;99.90
59282;DHT22;45054;52.062;10.010;2023-11-19T05:49:01;9.10;99.90
59282;DHT22;45054;52.062;10.010;2023-11-19T05:51:26;9.10;99.90
59282;DHT22;45054;52.062;10.010;2023-11-19T05:53:53;9.10;99.90
59282;DHT22;45054;52.062;10.010;2023-11-19T05:56:19;9.20;99.90
59282;DHT22;45054;52.062;10.010;2023-11-19T05:58:44;9.20;99.90
59282;DHT22;45054;52.062;10.010;2023-11-19T06:01:10;9.40;99.90
59282;DHT22;45054;52.062;10.010;2023-11-19T06:03:35;9.40;99.90
59282;DHT22;45054;52.062;10.010;2023-11-19T06:06:00;9.40;99.90
59282;DHT22;45054;52.062;10.010;2023-11-19T06:08:26;9.30;99.90
59282;DHT22;45054;52.062;10.010;2023-11-19T06:10:53;9.30;99.90
59282;DHT22;45054;52.062;10.010;2023-11-19T06:13:18;9.30;99.90
59282;DHT22;45054;52.062;10.010;2023-11-19T06:15:44;9.40;99.90
59282;DHT22;45054;52.062;10.010;2023-11-19T06:18:09;9.50;99.90
59282;DHT22;45054;52.062;10.010;2023-11-19T06:20:35;9.60;99.90
59282;DHT22;45054;52.062;10.010;2023-11-19T06:23:00;9.70;99.90
59282;DHT22;45054;52.062;10.010;2023-11-19T06:25:26;9.70;99.90
59282;DHT22;45054;52.062;10.010;2023-11-19T06:27:53;9.80;99.90
59282;DHT22;45054;52.062;10.010;2023-11-19T06:30:18;9.80;99.90
59282;DHT22;45054;52.062;10.010;2023-11-19T06:32:44;9.80;99.90
59282;DHT22;45054;52.062;10.010;2023-11-19T06:35:09;9.70;99.90
59282;DHT22;45054;52.062;10.010;2023-11-19T06:37:35;9.80;99.90
59282;DHT22;45054;52.062;10.010;2023-11-19T06:40:00;9.80;99.90
59282;DHT22;45054;52.062;10.010;2023-11-19T06:42:26;9.80;99.90
59282;DHT22;45054;52.062;10.010;2023-11-19T06:44:53;9.80;99.90
59282;DHT22;45054;52.062;10.010;2023-11-19T06:47:18;10.00;99.90
59282;DHT22;45054;52.062;10.010;2023-11-19T06:49:43;10.00;99.90
59282;DHT22;45054;52.062;10.010;2023-11-19T06:52:09;10.10;99.90
59282;DHT22;45054;52.062;10.010;2023-11-19T06:54:34;10.10;99.90
59282;DHT22;45054;52.062;10.010;2023-11-19T06:57:00;10.20;99.90
59282;DHT22;45054;52.062;10.010;2023-11-19T06:59:25;10.20;99.90
59282;DHT22;45054;52.062;10.010;2023-11-19T07:01:52;10.30;99.90
59282;DHT22;45054;52.062;10.010;2023-11-19T07:04:18;10.30;99.90
59282;DHT22;45054;52.062;10.010;2023-11-19T07:06:43;10.40;99.90
59282;DHT22;45054;52.062;10.010;2023-11-19T07:09:09;10.40;99.90
59282;DHT22;45054;52.062;10.010;2023-11-19T07:11:34;10.40;99.90
59282;DHT22;45054;52.062;10.010;2023-11-19T07:14:00;10.40;99.90
59282;DHT22;45054;52.062;10.010;2023-11-19T07:16:25;10.50;99.90
59282;DHT22;45054;52.062;10.010;2023-11-19T07:18:52;10.50;99.90
59282;DHT22;45054;52.062;10.010;2023-11-19T07:21:17;10.50;99.90
59282;DHT22;45054;52.062;10.010;2023-11-19T07:23:43;10.50;99.90
59282;DHT22;45054;52.062;10.010;2023-11-19T07:26:08;10.50;99.90
59282;DHT22;45054;52.062;10.010;2023-11-19T07:28:34;10.60;99.90
59282;DHT22;45054;52.062;10.010;2023-11-19T07:30:59;10.70;99.90
59282;DHT22;45054;52.062;10.010;2023-11-19T07:33:25;11.00;99.90
59282;DHT22;45054;52.062;10.010;2023-11-19T07:35:51;11.00;99.90
59282;DHT22;45054;52.062;10.010;2023-11-19T07:38:17;11.00;99.90
59282;DHT22;45054;52.062;10.010;2023-11-19T07:40:42;11.00;99.90
59282;DHT22;45054;52.062;10.010;2023-11-19T07:43:08;11.00;99.90
59282;DHT22;45054;52.062;10.010;2023-11-19T07:45:33;11.10;99.90
59282;DHT22;45054;52.062;10.010;2023-11-19T07:47:59;11.30;99.90
59282;DHT22;45054;52.062;10.010;2023-11-19T07:50:24;11.30;99.90
59282;DHT22;45054;52.062;10.010;2023-11-19T07:52:51;11.30;99.90
59282;DHT22;45054;52.062;10.010;2023-11-19T07:55:16;11.20;99.90
59282;DHT22;45054;52.062;10.010;2023-11-19T07:57:42;11.20;99.90
59282;DHT22;45054;52.062;10.010;2023-11-19T08:00:08;11.20;99.90
59282;DHT22;45054;52.062;10.010;2023-11-19T08:02:33;11.40;99.90
59282;DHT22;45054;52.062;10.010;2023-11-19T08:04:59;11.40;99.90
59282;DHT22;45054;52.062;10.010;2023-11-19T08:07:24;11.30;99.90
59282;DHT22;45054;52.062;10.010;2023-11-19T08:09:51;11.30;99.90
59282;DHT22;45054;52.062;10.010;2023-11-19T08:12:16;11.30;99.90
59282;DHT22;45054;52.062;10.010;2023-11-19T08:14:42;11.30;99.90
59282;DHT22;45054;52.062;10.010;2023-11-19T08:17:08;11.30;99.90
59282;DHT22;45054;52.062;10.010;2023-11-19T08:19:33;11.40;99.90
59282;DHT22;45054;52.062;10.010;2023-11-19T08:21:58;11.50;99.90
59282;DHT22;45054;52.062;10.010;2023-11-19T08:24:24;11.50;99.90
59282;DHT22;45054;52.062;10.010;2023-11-19T08:26:51;11.50;99.90
59282;DHT22;45054;52.062;10.010;2023-11-19T08:29:16;11.60;99.90
59282;DHT22;45054;52.062;10.010;2023-11-19T08:31:42;11.70;99.90
59282;DHT22;45054;52.062;10.010;2023-11-19T08:34:07;11.70;99.90
59282;DHT22;45054;52.062;10.010;2023-11-19T08:36:33;11.70;99.90
59282;DHT22;45054;52.062;10.010;2023-11-19T08:38:58;11.80;99.90
59282;DHT22;45054;52.062;10.010;2023-11-19T08:41:24;11.80;99.90
59282;DHT22;45054;52.062;10.010;2023-11-19T08:43:50;11.80;99.90
59282;DHT22;45054;52.062;10.010;2023-11-19T08:46:16;11.80;99.90
59282;DHT22;45054;52.062;10.010;2023-11-19T08:48:42;11.80;99.90
59282;DHT22;45054;52.062;10.010;2023-11-19T08:51:08;11.70;99.90
59282;DHT22;45054;52.062;10.010;2023-11-19T08:53:33;11.80;99.90
59282;DHT22;45054;52.062;10.010;2023-11-19T08:55:59;11.70;99.90
59282;DHT22;45054;52.062;10.010;2023-11-19T08:58:24;11.70;99.90
59282;DHT22;45054;52.062;10.010;2023-11-19T09:00:51;11.70;99.90
59282;DHT22;45054;52.062;10.010;2023-11-19T09:03:16;11.70;99.90
59282;DHT22;45054;52.062;10.010;2023-11-19T09:05:42;11.80;99.90
59282;DHT22;45054;52.062;10.010;2023-11-19T09:08:07;11.80;99.90
59282;DHT22;45054;52.062;10.010;2023-11-19T09:10:33;11.80;99.90
59282;DHT22;45054;52.062;10.010;2023-11-19T09:12:58;11.80;99.90
59282;DHT22;45054;52.062;10.010;2023-11-19T09:15:24;11.80;99.90
59282;DHT22;45054;52.062;10.010;2023-11-19T09:17:50;11.80;99.90
59282;DHT22;45054;52.062;10.010;2023-11-19T09:20:16;11.90;99.90
59282;DHT22;45054;52.062;10.010;2023-11-19T09:22:41;11.90;99.90
59282;DHT22;45054;52.062;10.010;2023-11-19T09:25:07;11.90;99.90
59282;DHT22;45054;52.062;10.010;2023-11-19T09:27:33;11.90;99.90
59282;DHT22;45054;52.062;10.010;2023-11-19T09:29:58;11.90;99.90
59282;DHT22;45054;52.062;10.010;2023-11-19T09:32:24;11.90;99.90
59282;DHT22;45054;52.062;10.010;2023-11-19T09:34:51;12.00;99.90
59282;DHT22;45054;52.062;10.010;2023-11-19T09:37:16;12.00;99.90
59282;DHT22;45054;52.062;10.010;2023-11-19T09:39:42;11.90;99.90
59282;DHT22;45054;52.062;10.010;2023-11-19T09:42:07;11.90;99.90
59282;DHT22;45054;52.062;10.010;2023-11-19T09:44:32;11.90;99.90
59282;DHT22;45054;52.062;10.010;2023-11-19T09:46:58;11.80;99.90
59282;DHT22;45054;52.062;10.010;2023-11-19T09:49:24;11.80;99.90
59282;DHT22;45054;52.062;10.010;2023-11-19T09:51:52;11.90;99.90
59282;DHT22;45054;52.062;10.010;2023-11-19T09:54:18;11.80;99.90
59282;DHT22;45054;52.062;10.010;2023-11-19T09:56:43;11.80;99.90
59282;DHT22;45054;52.062;10.010;2023-11-19T09:59:09;11.90;99.90
59282;DHT22;45054;52.062;10.010;2023-11-19T10:01:35;12.00;99.90
59282;DHT22;45054;52.062;10.010;2023-11-19T10:04:00;12.00;99.90
59282;DHT22;45054;52.062;10.010;2023-11-19T10:06:26;12.00;99.90
59282;DHT22;45054;52.062;10.010;2023-11-19T10:08:53;12.00;99.90
59282;DHT22;45054;52.062;10.010;2023-11-19T10:11:19;12.00;99.90
59282;DHT22;45054;52.062;10.010;2023-11-19T10:13:44;11.90;99.90
59282;DHT22;45054;52.062;10.010;2023-11-19T10:16:10;11.90;99.90
59282;DHT22;45054;52.062;10.010;2023-11-19T10:18:37;11.90;99.90
59282;DHT22;45054;52.062;10.010;2023-11-19T10:21:03;11.80;99.90
59282;DHT22;45054;52.062;10.010;2023-11-19T10:23:28;11.90;99.90
59282;DHT22;45054;52.062;10.010;2023-11-19T10:25:55;11.90;99.90
59282;DHT22;45054;52.062;10.010;2023-11-19T10:28:26;11.90;99.90
59282;DHT22;45054;52.062;10.010;2023-11-19T10:30:52;11.90;99.90
59282;DHT22;45054;52.062;10.010;2023-11-19T10:33:21;11.90;99.90
59282;DHT22;45054;52.062;10.010;2023-11-19T10:35:53;12.00;99.90
59282;DHT22;45054;52.062;10.010;2023-11-19T10:38:19;12.10;99.90
59282;DHT22;45054;52.062;10.010;2023-11-19T10:40:44;12.10;99.90
59282;DHT22;45054;52.062;10.010;2023-11-19T10:43:11;12.20;99.90
59282;DHT22;45054;52.062;10.010;2023-11-19T10:45:37;12.20;99.90
59282;DHT22;45054;52.062;10.010;2023-11-19T10:48:03;12.10;99.90
59282;DHT22;45054;52.062;10.010;2023-11-19T10:50:29;12.20;99.90
59282;DHT22;45054;52.062;10.010;2023-11-19T10:52:56;12.20;99.90
59282;DHT22;45054;52.062;10.010;2023-11-19T10:55:21;12.30;99.90
59282;DHT22;45054;52.062;10.010;2023-11-19T10:57:51;12.30;99.90
59282;DHT22;45054;52.062;10.010;2023-11-19T11:00:19;12.40;99.90
59282;DHT22;45054;52.062;10.010;2023-11-19T11:02:45;12.40;99.90
59282;DHT22;45054;52.062;10.010;2023-11-19T11:05:12;12.30;99.90
59282;DHT22;45054;52.062;10.010;2023-11-19T11:07:38;12.30;99.90
59282;DHT22;45054;52.062;10.010;2023-11-19T11:10:06;12.30;99.90
59282;DHT22;45054;52.062;10.010;2023-11-19T11:12:32;12.30;99.90
59282;DHT22;45054;52.062;10.010;2023-11-19T11:15:01;12.30;99.90
59282;DHT22;45054;52.062;10.010;2023-11-19T11:17:29;12.30;99.90
59282;DHT22;45054;52.062;10.010;2023-11-19T11:19:57;12.30;99.90
59282;DHT22;45054;52.062;10.010;2023-11-19T11:22:22;12.20;99.90
59282;DHT22;45054;52.062;10.010;2023-11-19T11:24:57;12.20;99.90
59282;DHT22;45054;52.062;10.010;2023-11-19T11:30:11;12.30;99.90
59282;DHT22;45054;52.062;10.010;2023-11-19T11:32:41;12.40;99.90
59282;DHT22;45054;52.062;10.010;2023-11-19T11:35:19;12.40;99.90
59282;DHT22;45054;52.062;10.010;2023-11-19T11:37:49;12.40;99.90
59282;DHT22;45054;52.062;10.010;2023-11-19T11:40:17;12.30;99.90
59282;DHT22;45054;52.062;10.010;2023-11-19T11:42:42;12.40;99.90
59282;DHT22;45054;52.062;10.010;2023-11-19T11:45:08;12.40;99.90
59282;DHT22;45054;52.062;10.010;2023-11-19T11:50:20;12.50;99.90
59282;DHT22;45054;52.062;10.010;2023-11-19T11:55:26;12.70;99.90
59282;DHT22;45054;52.062;10.010;2023-11-19T11:57:51;12.90;99.90
59282;DHT22;45054;52.062;10.010;2023-11-19T12:00:21;12.90;99.90
59282;DHT22;45054;52.062;10.010;2023-11-19T12:02:46;12.90;99.90
59282;DHT22;45054;52.062;10.010;2023-11-19T12:05:14;12.90;99.90
59282;DHT22;45054;52.062;10.010;2023-11-19T12:07:41;13.00;99.90
59282;DHT22;45054;52.062;10.010;2023-11-19T12:10:07;13.30;99.90
59282;DHT22;45054;52.062;10.010;2023-11-19T12:12:32;13.30;99.90
59282;DHT22;45054;52.062;10.010;2023-11-19T12:15:02;13.20;99.90
59282;DHT22;45054;52.062;10.010;2023-11-19T12:17:44;13.20;99.90
59282;DHT22;45054;52.062;10.010;2023-11-19T12:20:12;13.20;99.90
59282;DHT22;45054;52.062;10.010;2023-11-19T12:22:37;13.40;99.90
59282;DHT22;45054;52.062;10.010;2023-11-19T12:25:05;13.40;99.90
59282;DHT22;45054;52.062;10.010;2023-11-19T12:27:31;13.50;99.90
59282;DHT22;45054;52.062;10.010;2023-11-19T12:29:57;13.60;99.90
59282;DHT22;45054;52.062;10.010;2023-11-19T12:32:22;13.60;99.90
59282;DHT22;45054;52.062;10.010;2023-11-19T12:34:47;13.50;99.90
59282;DHT22;45054;52.062;10.010;2023-11-19T12:37:13;13.50;99.90
59282;DHT22;45054;52.062;10.010;2023-11-19T12:39:39;13.40;99.90
59282;DHT22;45054;52.062;10.010;2023-11-19T12:42:06;13.50;99.90
59282;DHT22;45054;52.062;10.010;2023-11-19T12:44:31;13.60;99.90
59282;DHT22;45054;52.062;10.010;2023-11-19T12:47:00;13.70;99.90
59282;DHT22;45054;52.062;10.010;2023-11-19T12:49:26;13.60;99.90
59282;DHT22;45054;52.062;10.010;2023-11-19T12:51:51;13.40;99.90
59282;DHT22;45054;52.062;10.010;2023-11-19T12:54:17;13.20;99.90
59282;DHT22;45054;52.062;10.010;2023-11-19T12:56:51;13.10;99.90
59282;DHT22;45054;52.062;10.010;2023-11-19T12:59:18;13.00;99.90
59282;DHT22;45054;52.062;10.010;2023-11-19T13:01:53;12.70;99.90
59282;DHT22;45054;52.062;10.010;2023-11-19T13:04:18;12.60;99.90
59282;DHT22;45054;52.062;10.010;2023-11-19T13:06:44;12.60;99.90
59282;DHT22;45054;52.062;10.010;2023-11-19T13:09:12;12.50;99.90
59282;DHT22;45054;52.062;10.010;2023-11-19T13:11:46;12.30;99.90
59282;DHT22;45054;52.062;10.010;2023-11-19T13:14:11;12.20;99.90
59282;DHT22;45054;52.062;10.010;2023-11-19T13:16:38;12.00;99.90
59282;DHT22;45054;52.062;10.010;2023-11-19T13:19:04;11.80;99.90
59282;DHT22;45054;52.062;10.010;2023-11-19T13:21:29;11.70;99.90
59282;DHT22;45054;52.062;10.010;2023-11-19T13:23:55;11.60;99.90
59282;DHT22;45054;52.062;10.010;2023-11-19T13:26:20;11.60;99.90
59282;DHT22;45054;52.062;10.010;2023-11-19T13:28:46;11.50;99.90
59282;DHT22;45054;52.062;10.010;2023-11-19T13:31:11;11.60;99.90
59282;DHT22;45054;52.062;10.010;2023-11-19T13:33:38;11.70;99.90
59282;DHT22;45054;52.062;10.010;2023-11-19T13:36:04;11.80;99.90
59282;DHT22;45054;52.062;10.010;2023-11-19T13:38:29;11.70;99.90
59282;DHT22;45054;52.062;10.010;2023-11-19T13:40:55;11.80;99.90
59282;DHT22;45054;52.062;10.010;2023-11-19T13:43:20;11.80;99.90
59282;DHT22;45054;52.062;10.010;2023-11-19T13:45:46;11.80;99.90
59282;DHT22;45054;52.062;10.010;2023-11-19T13:48:11;11.80;99.90
59282;DHT22;45054;52.062;10.010;2023-11-19T13:50:38;11.90;99.90
59282;DHT22;45054;52.062;10.010;2023-11-19T13:53:03;11.80;99.90
59282;DHT22;45054;52.062;10.010;2023-11-19T13:55:29;11.80;99.90
59282;DHT22;45054;52.062;10.010;2023-11-19T13:57:54;11.90;99.90
59282;DHT22;45054;52.062;10.010;2023-11-19T14:00:20;11.80;99.90
59282;DHT22;45054;52.062;10.010;2023-11-19T14:02:46;11.90;99.90
59282;DHT22;45054;52.062;10.010;2023-11-19T14:05:11;11.90;99.90
59282;DHT22;45054;52.062;10.010;2023-11-19T14:07:38;11.90;99.90
59282;DHT22;45054;52.062;10.010;2023-11-19T14:10:04;11.90;99.90
59282;DHT22;45054;52.062;10.010;2023-11-19T14:12:30;12.00;99.90
59282;DHT22;45054;52.062;10.010;2023-11-19T14:14:56;12.00;99.90
59282;DHT22;45054;52.062;10.010;2023-11-19T14:17:21;11.90;99.90
59282;DHT22;45054;52.062;10.010;2023-11-19T14:19:46;11.90;99.90
59282;DHT22;45054;52.062;10.010;2023-11-19T14:22:12;11.90;99.90
59282;DHT22;45054;52.062;10.010;2023-11-19T14:24:39;11.90;99.90
59282;DHT22;45054;52.062;10.010;2023-11-19T14:27:04;11.90;99.90
59282;DHT22;45054;52.062;10.010;2023-11-19T14:29:30;11.90;99.90
59282;DHT22;45054;52.062;10.010;2023-11-19T14:31:55;11.90;99.90
59282;DHT22;45054;52.062;10.010;2023-11-19T14:34:21;11.90;99.90
59282;DHT22;45054;52.062;10.010;2023-11-19T14:36:46;11.90;99.90
59282;DHT22;45054;52.062;10.010;2023-11-19T14:39:12;11.90;99.90
59282;DHT22;45054;52.062;10.010;2023-11-19T14:41:39;11.90;99.90
59282;DHT22;45054;52.062;10.010;2023-11-19T14:44:04;12.00;99.90
59282;DHT22;45054;52.062;10.010;2023-11-19T14:46:30;12.00;99.90
59282;DHT22;45054;52.062;10.010;2023-11-19T14:48:55;12.00;99.90
59282;DHT22;45054;52.062;10.010;2023-11-19T14:51:21;11.90;99.90
59282;DHT22;45054;52.062;10.010;2023-11-19T14:53:46;11.90;99.90
59282;DHT22;45054;52.062;10.010;2023-11-19T14:56:12;11.80;99.90
59282;DHT22;45054;52.062;10.010;2023-11-19T14:58:39;11.80;99.90
59282;DHT22;45054;52.062;10.010;2023-11-19T15:01:04;11.80;99.90
59282;DHT22;45054;52.062;10.010;2023-11-19T15:03:30;11.70;99.90
59282;DHT22;45054;52.062;10.010;2023-11-19T15:05:55;11.80;99.90
59282;DHT22;45054;52.062;10.010;2023-11-19T15:08:21;11.70;99.90
59282;DHT22;45054;52.062;10.010;2023-11-19T15:10:46;11.70;99.90
59282;DHT22;45054;52.062;10.010;2023-11-19T15:13:12;11.70;99.90
59282;DHT22;45054;52.062;10.010;2023-11-19T15:15:39;11.70;99.90
59282;DHT22;45054;52.062;10.010;2023-11-19T15:18:04;11.70;99.90
59282;DHT22;45054;52.062;10.010;2023-11-19T15:20:30;11.70;99.90
59282;DHT22;45054;52.062;10.010;2023-11-19T15:22:55;11.70;99.90